createdAt,value
2022-10-08T00:02:55.802Z,80.49
2022-10-08T00:05:59.587Z,79.77
2022-10-08T00:09:02.338Z,79.24
2022-10-08T00:11:59.529Z,79.39
2022-10-08T00:14:56.454Z,80.47
2022-10-08T00:17:54.076Z,80.27
2022-10-08T00:20:50.430Z,81.98
2022-10-08T00:23:48.182Z,83.10
2022-10-08T00:26:45.913Z,83.30
2022-10-08T00:29:44.726Z,83.50
2022-10-08T00:32:41.725Z,82.94
2022-10-08T00:35:39.310Z,82.27
2022-10-08T00:38:36.812Z,82.91
2022-10-08T00:41:34.921Z,85.98
2022-10-08T00:44:53.507Z,86.57
2022-10-08T00:47:50.819Z,85.19
2022-10-08T00:50:47.828Z,84.95
2022-10-08T00:53:45.003Z,85.29
2022-10-08T00:56:42.022Z,86.88
2022-10-08T00:59:38.526Z,88.23
2022-10-08T01:02:35.943Z,88.33
2022-10-08T01:06:00.442Z,87.63
2022-10-08T01:09:06.000Z,85.34
2022-10-08T01:12:23.148Z,86.65
2022-10-08T01:15:30.268Z,86.57
2022-10-08T01:18:58.994Z,86.10
2022-10-08T01:22:35.986Z,84.81
2022-10-08T01:25:35.766Z,83.95
2022-10-08T01:28:56.530Z,83.88
2022-10-08T01:32:14.703Z,83.40
2022-10-08T01:35:14.522Z,82.94
2022-10-08T01:38:14.117Z,84.10
2022-10-08T01:41:12.468Z,85.09
2022-10-08T01:44:19.904Z,85.79
2022-10-08T01:47:19.990Z,86.33
2022-10-08T01:50:20.433Z,86.55
2022-10-08T01:53:17.847Z,86.54
2022-10-08T01:56:18.473Z,86.66
2022-10-08T01:59:45.794Z,87.03
2022-10-08T02:02:42.745Z,87.76
2022-10-08T02:05:41.877Z,88.03
2022-10-08T02:08:38.643Z,87.82
2022-10-08T02:11:36.001Z,88.18
2022-10-08T02:14:33.431Z,88.76
2022-10-08T02:17:43.725Z,88.06
2022-10-08T02:20:53.526Z,88.15
2022-10-08T02:24:00.737Z,88.46
2022-10-08T02:26:58.041Z,88.59
2022-10-08T02:30:01.582Z,88.18
2022-10-08T02:33:02.687Z,88.15
2022-10-08T02:35:59.934Z,87.31
2022-10-08T02:38:58.277Z,88.37
2022-10-08T02:41:58.169Z,88.79
2022-10-08T02:44:58.901Z,88.20
2022-10-08T02:48:00.709Z,88.46
2022-10-08T02:50:59.437Z,88.73
2022-10-08T02:53:56.622Z,89.77
2022-10-08T02:57:07.124Z,89.60
2022-10-08T03:00:07.481Z,89.24
2022-10-08T03:03:13.984Z,88.62
2022-10-08T03:06:11.094Z,88.33
2022-10-08T03:09:07.605Z,88.50
2022-10-08T03:12:05.971Z,87.91
2022-10-08T03:15:02.728Z,88.67
2022-10-08T03:18:06.404Z,89.55
2022-10-08T03:21:04.249Z,90.10
2022-10-08T03:24:01.856Z,92.01
2022-10-08T03:26:58.827Z,92.30
2022-10-08T03:29:57.469Z,92.22
2022-10-08T03:32:55.005Z,93.00
2022-10-08T03:35:52.029Z,92.92
2022-10-08T03:38:49.229Z,93.73
2022-10-08T03:41:46.758Z,94.26
2022-10-08T03:44:44.119Z,94.85
2022-10-08T03:47:40.542Z,94.47
2022-10-08T03:50:37.692Z,94.39
2022-10-08T03:53:35.540Z,93.28
2022-10-08T03:56:32.935Z,92.92
2022-10-08T03:59:31.045Z,92.49
2022-10-08T04:02:27.828Z,92.82
2022-10-08T04:05:24.709Z,92.75
2022-10-08T04:08:22.235Z,93.45
2022-10-08T04:11:18.891Z,93.35
2022-10-08T04:14:15.664Z,94.03
2022-10-08T04:17:13.218Z,95.23
2022-10-08T04:20:10.039Z,96.03
2022-10-08T04:23:07.882Z,96.39
2022-10-08T04:26:05.094Z,96.58
2022-10-08T04:29:01.963Z,96.76
2022-10-08T04:31:59.067Z,96.52
2022-10-08T04:34:55.738Z,97.16
2022-10-08T04:37:52.671Z,97.33
2022-10-08T04:41:00.824Z,97.56
2022-10-08T04:43:59.919Z,97.37
2022-10-08T04:46:57.071Z,96.99
2022-10-08T04:49:54.056Z,96.86
2022-10-08T04:52:50.899Z,96.14
2022-10-08T04:55:48.058Z,97.44
2022-10-08T04:58:44.950Z,97.39
2022-10-08T05:01:41.942Z,97.35
2022-10-08T05:04:38.902Z,97.78
2022-10-08T05:07:35.712Z,97.82
2022-10-08T05:10:33.208Z,97.74
2022-10-08T05:13:29.682Z,98.28
2022-10-08T05:16:27.324Z,97.69
2022-10-08T05:19:24.170Z,99.09
2022-10-08T05:22:21.009Z,100.00
2022-10-08T05:25:17.850Z,99.32
2022-10-08T05:28:14.694Z,99.68
2022-10-08T05:31:11.733Z,99.68
2022-10-08T05:34:09.006Z,100.00
2022-10-08T05:37:06.019Z,100.00
2022-10-08T05:40:03.122Z,100.00
2022-10-08T05:43:00.106Z,100.00
2022-10-08T05:45:56.784Z,100.00
2022-10-08T05:48:54.769Z,100.00
2022-10-08T05:51:51.929Z,100.00
2022-10-08T05:54:48.974Z,100.00
2022-10-08T05:57:46.541Z,100.00
2022-10-08T06:00:43.803Z,100.00
2022-10-08T06:03:41.515Z,100.00
2022-10-08T06:06:40.575Z,100.00
2022-10-08T06:09:38.204Z,100.00
2022-10-08T06:12:35.236Z,100.00
2022-10-08T06:15:32.266Z,100.00
2022-10-08T06:18:30.644Z,100.00
2022-10-08T06:21:29.406Z,100.00
2022-10-08T06:24:27.125Z,100.00
2022-10-08T06:27:24.118Z,100.00
2022-10-08T06:30:21.123Z,100.00
2022-10-08T06:33:18.110Z,100.00
2022-10-08T06:36:19.171Z,100.00
2022-10-08T06:39:17.894Z,100.00
2022-10-08T06:42:14.955Z,100.00
2022-10-08T06:45:13.909Z,100.00
2022-10-08T06:48:11.452Z,100.00
2022-10-08T06:51:13.809Z,100.00
2022-10-08T06:54:11.473Z,100.00
2022-10-08T06:57:09.334Z,100.00
2022-10-08T07:00:06.922Z,100.00
2022-10-08T07:03:03.943Z,100.00
2022-10-08T07:06:05.322Z,100.00
2022-10-08T07:09:02.595Z,100.00
2022-10-08T07:11:59.884Z,100.00
2022-10-08T07:14:56.673Z,100.00
2022-10-08T07:17:54.190Z,100.00
2022-10-08T07:20:56.252Z,100.00
2022-10-08T07:23:53.325Z,100.00
2022-10-08T07:26:50.088Z,100.00
2022-10-08T07:29:47.068Z,100.00
2022-10-08T07:32:43.811Z,100.00
2022-10-08T07:35:41.387Z,100.00
2022-10-08T07:38:39.326Z,100.00
2022-10-08T07:41:36.316Z,100.00
2022-10-08T07:44:33.109Z,100.00
2022-10-08T07:47:30.110Z,100.00
2022-10-08T07:50:27.204Z,100.00
2022-10-08T07:53:24.094Z,100.00
2022-10-08T07:56:21.352Z,100.00
2022-10-08T07:59:18.135Z,100.00
2022-10-08T08:02:15.186Z,100.00
2022-10-08T08:05:12.307Z,100.00
2022-10-08T08:08:09.595Z,100.00
2022-10-08T08:11:07.893Z,100.00
2022-10-08T08:14:05.096Z,100.00
2022-10-08T08:17:02.389Z,100.00
2022-10-08T08:19:59.509Z,100.00
2022-10-08T08:22:56.908Z,100.00
2022-10-08T08:25:53.790Z,100.00
2022-10-08T08:28:52.438Z,100.00
2022-10-08T08:31:49.745Z,100.00
2022-10-08T08:34:47.323Z,99.96
2022-10-08T08:37:44.295Z,99.25
2022-10-08T08:40:41.401Z,99.54
2022-10-08T08:43:38.002Z,98.32
2022-10-08T08:46:36.600Z,98.14
2022-10-08T08:49:42.032Z,98.76
2022-10-08T08:52:40.747Z,97.67
2022-10-08T08:55:43.867Z,96.88
2022-10-08T08:58:43.103Z,96.85
2022-10-08T09:01:43.486Z,96.76
2022-10-08T09:04:45.468Z,93.84
2022-10-08T09:07:47.104Z,98.95
2022-10-08T09:10:52.834Z,100.00
2022-10-08T09:13:51.287Z,100.00
2022-10-08T09:16:48.214Z,100.00
2022-10-08T09:19:45.591Z,100.00
2022-10-08T09:22:43.281Z,100.00
2022-10-08T09:25:39.838Z,100.00
2022-10-08T09:28:44.707Z,100.00
2022-10-08T09:31:44.873Z,100.00
2022-10-08T09:34:43.300Z,100.00
2022-10-08T09:37:40.152Z,100.00
2022-10-08T09:40:36.797Z,100.00
2022-10-08T09:43:35.050Z,100.00
2022-10-08T09:46:33.086Z,100.00
2022-10-08T09:49:36.095Z,100.00
2022-10-08T09:52:34.118Z,100.00
2022-10-08T09:55:32.098Z,98.75
2022-10-08T09:58:31.194Z,96.08
2022-10-08T10:01:28.689Z,96.03
2022-10-08T10:04:36.459Z,94.17
2022-10-08T10:07:41.151Z,91.61
2022-10-08T10:10:39.613Z,92.32
2022-10-08T10:13:38.565Z,90.04
2022-10-08T10:16:37.911Z,89.57
2022-10-08T10:19:59.635Z,88.29
2022-10-08T10:23:13.783Z,87.12
2022-10-08T10:26:13.416Z,88.81
2022-10-08T10:29:20.776Z,84.69
2022-10-08T10:32:21.792Z,81.87
2022-10-08T10:35:29.174Z,82.11
2022-10-08T10:38:28.485Z,79.62
2022-10-08T10:41:52.873Z,80.55
2022-10-08T10:44:54.741Z,78.78
2022-10-08T10:47:53.382Z,77.20
2022-10-08T10:51:07.951Z,75.88
2022-10-08T10:54:26.859Z,76.27
2022-10-08T10:58:01.924Z,77.29
2022-10-08T11:01:23.975Z,79.41
2022-10-08T11:04:32.635Z,79.90
2022-10-08T11:07:50.344Z,79.38
2022-10-08T11:11:05.597Z,79.13
2022-10-08T11:14:21.524Z,78.39
2022-10-08T11:17:52.787Z,77.51
2022-10-08T11:21:31.966Z,75.42
2022-10-08T11:25:13.797Z,74.61
2022-10-08T11:28:39.473Z,76.80
2022-10-08T11:31:42.599Z,72.96
2022-10-08T11:34:40.269Z,72.24
2022-10-08T11:37:51.423Z,72.89
2022-10-08T11:40:49.408Z,71.92
2022-10-08T11:43:53.283Z,70.92
2022-10-08T11:46:49.900Z,71.67
2022-10-08T11:49:51.271Z,72.63
2022-10-08T11:52:48.103Z,70.82
2022-10-08T11:55:53.200Z,70.94
2022-10-08T11:58:53.425Z,70.02
2022-10-08T12:02:28.793Z,71.55
2022-10-08T12:05:25.983Z,69.02
2022-10-08T12:08:50.554Z,68.09
2022-10-08T12:11:48.329Z,69.15
2022-10-08T12:14:45.837Z,71.08
2022-10-08T12:18:13.582Z,72.17
2022-10-08T12:21:16.170Z,71.18
2022-10-08T12:24:38.234Z,70.89
2022-10-08T12:27:38.005Z,69.43
2022-10-08T12:30:48.479Z,66.71
2022-10-08T12:33:55.397Z,65.80
2022-10-08T12:36:55.254Z,64.44
2022-10-08T12:39:53.173Z,65.65
2022-10-08T12:42:50.342Z,66.82
2022-10-08T12:45:57.782Z,67.63
2022-10-08T12:49:09.317Z,68.36
2022-10-08T12:52:07.598Z,69.63
2022-10-08T12:55:05.051Z,69.92
2022-10-08T12:58:02.339Z,70.46
2022-10-08T13:01:00.818Z,70.99
2022-10-08T13:04:34.018Z,72.10
2022-10-08T13:07:33.376Z,71.52
2022-10-08T13:10:30.349Z,72.02
2022-10-08T13:13:33.580Z,71.53
2022-10-08T13:16:30.622Z,71.93
2022-10-08T13:19:35.287Z,71.53
2022-10-08T13:22:32.471Z,72.62
2022-10-08T13:25:37.938Z,72.51
2022-10-08T13:28:59.199Z,72.85
2022-10-08T13:32:11.479Z,73.17
2022-10-08T13:35:20.290Z,70.75
2022-10-08T13:38:21.761Z,72.25
2022-10-08T13:41:25.262Z,72.90
2022-10-08T13:44:22.246Z,72.45
2022-10-08T13:47:20.755Z,72.22
2022-10-08T13:50:18.688Z,71.41
2022-10-08T13:53:17.407Z,70.83
2022-10-08T13:56:14.171Z,70.81
2022-10-08T13:59:12.246Z,69.49
2022-10-08T14:02:13.713Z,71.26
2022-10-08T14:05:11.557Z,71.61
2022-10-08T14:08:20.273Z,72.19
2022-10-08T14:11:18.159Z,73.21
2022-10-08T14:14:15.578Z,71.10
2022-10-08T14:17:12.373Z,70.55
2022-10-08T14:20:09.639Z,68.90
2022-10-08T14:23:06.452Z,69.36
2022-10-08T14:26:03.479Z,64.12
2022-10-08T14:29:00.449Z,61.83
2022-10-08T14:31:57.457Z,62.69
2022-10-08T14:34:54.694Z,60.96
2022-10-08T14:37:51.611Z,60.22
2022-10-08T14:40:48.287Z,60.70
2022-10-08T14:43:45.364Z,60.93
2022-10-08T14:46:47.497Z,61.35
2022-10-08T14:49:44.679Z,60.02
2022-10-08T14:52:44.691Z,61.27
2022-10-08T14:56:00.812Z,65.55
2022-10-08T14:58:59.513Z,66.98
2022-10-08T15:01:56.538Z,66.95
2022-10-08T15:04:54.953Z,67.03
2022-10-08T15:07:52.340Z,68.00
2022-10-08T15:10:49.438Z,66.70
2022-10-08T15:13:46.451Z,64.92
2022-10-08T15:16:43.789Z,65.61
2022-10-08T15:19:41.594Z,65.62
2022-10-08T15:22:38.325Z,64.93
2022-10-08T15:25:35.443Z,58.46
2022-10-08T15:28:32.821Z,59.36
2022-10-08T15:31:30.269Z,60.40
2022-10-08T15:34:27.163Z,58.80
2022-10-08T15:37:24.738Z,59.61
2022-10-08T15:40:22.731Z,59.82
2022-10-08T15:43:19.330Z,60.18
2022-10-08T15:46:17.606Z,59.06
2022-10-08T15:49:14.119Z,60.49
2022-10-08T15:52:21.120Z,66.01
2022-10-08T15:55:18.361Z,69.46
2022-10-08T15:58:32.603Z,71.09
2022-10-08T16:01:35.436Z,71.17
2022-10-08T16:04:32.573Z,71.31
2022-10-08T16:07:29.594Z,70.94
2022-10-08T16:10:26.465Z,72.01
2022-10-08T16:13:23.595Z,70.93
2022-10-08T16:16:21.207Z,71.36
2022-10-08T16:19:22.657Z,71.40
2022-10-08T16:22:19.689Z,70.56
2022-10-08T16:25:16.424Z,70.32
2022-10-08T16:28:13.528Z,70.33
2022-10-08T16:31:11.494Z,70.78
2022-10-08T16:34:19.514Z,70.86
2022-10-08T16:37:18.227Z,70.26
2022-10-08T16:40:15.845Z,70.59
2022-10-08T16:43:13.521Z,70.51
2022-10-08T16:46:18.086Z,71.07
2022-10-08T16:49:22.715Z,71.18
2022-10-08T16:52:20.706Z,71.27
2022-10-08T16:55:18.379Z,71.73
2022-10-08T16:58:15.176Z,71.31
2022-10-08T17:01:12.873Z,72.43
2022-10-08T17:04:10.650Z,72.30
2022-10-08T17:07:07.798Z,73.37
2022-10-08T17:10:05.354Z,73.73
2022-10-08T17:13:02.419Z,74.96
2022-10-08T17:16:03.738Z,75.90
2022-10-08T17:19:01.003Z,76.56
2022-10-08T17:21:58.554Z,76.39
2022-10-08T17:24:56.369Z,77.06
2022-10-08T17:27:53.301Z,78.54
2022-10-08T17:30:50.768Z,77.73
2022-10-08T17:33:47.793Z,78.84
2022-10-08T17:36:44.846Z,79.72
2022-10-08T17:39:41.868Z,80.18
2022-10-08T17:42:39.819Z,79.87
2022-10-08T17:45:36.891Z,79.37
2022-10-08T17:48:34.373Z,79.54
2022-10-08T17:51:31.595Z,80.17
2022-10-08T17:54:28.796Z,79.80
2022-10-08T17:57:25.533Z,78.49
2022-10-08T18:00:22.762Z,76.98
2022-10-08T18:03:20.615Z,77.42
2022-10-08T18:06:18.162Z,78.68
2022-10-08T18:09:24.935Z,76.55
2022-10-08T18:12:22.494Z,75.96
2022-10-08T18:15:19.769Z,76.17
2022-10-08T18:18:16.945Z,78.04
2022-10-08T18:21:16.372Z,78.35
2022-10-08T18:24:13.839Z,78.67
2022-10-08T18:27:10.631Z,77.50
2022-10-08T18:30:08.420Z,76.93
2022-10-08T18:33:06.443Z,73.09
2022-10-08T18:36:11.717Z,73.23
2022-10-08T18:39:13.836Z,73.00
2022-10-08T18:42:10.878Z,73.99
2022-10-08T18:45:08.469Z,73.25
2022-10-08T18:48:05.871Z,72.93
2022-10-08T18:51:08.281Z,72.68
2022-10-08T18:54:06.829Z,73.15
2022-10-08T18:57:03.609Z,72.65
2022-10-08T19:00:00.748Z,72.23
2022-10-08T19:02:58.454Z,73.01
2022-10-08T19:05:55.859Z,72.86
2022-10-08T19:08:52.951Z,73.02
2022-10-08T19:11:52.871Z,73.76
2022-10-08T19:14:51.057Z,72.68
2022-10-08T19:17:48.952Z,73.39
2022-10-08T19:20:46.966Z,73.44
2022-10-08T19:23:44.672Z,73.78
2022-10-08T19:26:41.741Z,73.72
2022-10-08T19:29:39.418Z,73.75
2022-10-08T19:32:36.558Z,73.08
2022-10-08T19:35:33.511Z,73.97
2022-10-08T19:38:32.404Z,73.62
2022-10-08T19:41:30.090Z,74.26
2022-10-08T19:44:27.988Z,74.52
2022-10-08T19:47:25.826Z,75.27
2022-10-08T19:50:22.874Z,75.56
2022-10-08T19:53:19.751Z,76.07
2022-10-08T19:56:16.953Z,76.06
2022-10-08T19:59:13.817Z,76.04
2022-10-08T20:02:10.961Z,75.04
2022-10-08T20:05:08.921Z,75.06
2022-10-08T20:08:05.973Z,75.44
2022-10-08T20:11:07.431Z,75.85
2022-10-08T20:14:08.027Z,76.27
2022-10-08T20:17:06.088Z,79.38
2022-10-08T20:20:20.923Z,79.62
2022-10-08T20:23:23.128Z,78.77
2022-10-08T20:26:27.794Z,79.37
2022-10-08T20:29:29.980Z,80.64
2022-10-08T20:32:27.794Z,79.44
2022-10-08T20:35:24.687Z,79.66
2022-10-08T20:38:22.279Z,79.07
2022-10-08T20:41:20.474Z,79.58
2022-10-08T20:44:18.078Z,79.70
2022-10-08T20:47:16.048Z,78.79
2022-10-08T20:50:14.114Z,79.12
2022-10-08T20:53:11.749Z,78.58
2022-10-08T20:56:09.986Z,77.77
2022-10-08T20:59:09.074Z,79.54
2022-10-08T21:02:07.019Z,79.07
2022-10-08T21:05:04.853Z,78.42
2022-10-08T21:08:01.625Z,77.75
2022-10-08T21:11:02.390Z,77.98
2022-10-08T21:14:01.720Z,76.38
2022-10-08T21:16:58.917Z,76.03
2022-10-08T21:19:55.689Z,77.22
2022-10-08T21:22:53.153Z,77.46
2022-10-08T21:25:51.369Z,77.34
2022-10-08T21:28:50.130Z,77.99
2022-10-08T21:31:48.016Z,79.38
2022-10-08T21:34:44.513Z,78.58
2022-10-08T21:37:42.209Z,78.72
2022-10-08T21:40:39.853Z,78.00
2022-10-08T21:43:37.223Z,77.44
2022-10-08T21:46:37.270Z,78.80
2022-10-08T21:49:34.935Z,78.11
2022-10-08T21:52:33.299Z,80.27
2022-10-08T21:55:30.833Z,79.24
2022-10-08T21:58:28.455Z,79.12
2022-10-08T22:01:25.701Z,78.40
2022-10-08T22:04:24.183Z,80.20
2022-10-08T22:07:21.823Z,80.10
2022-10-08T22:10:19.263Z,80.02
2022-10-08T22:13:17.140Z,80.80
2022-10-08T22:16:15.623Z,80.53
2022-10-08T22:19:13.145Z,80.60
2022-10-08T22:22:11.049Z,79.97
2022-10-08T22:25:09.182Z,79.48
2022-10-08T22:28:06.849Z,80.69
2022-10-08T22:31:04.635Z,79.74
2022-10-08T22:34:01.899Z,81.08
2022-10-08T22:36:58.862Z,82.25
2022-10-08T22:39:55.782Z,82.63
2022-10-08T22:42:52.865Z,84.05
2022-10-08T22:45:50.012Z,84.69
2022-10-08T22:48:47.116Z,84.54
2022-10-08T22:51:44.793Z,85.46
2022-10-08T22:54:41.858Z,86.37
2022-10-08T22:57:39.873Z,86.59
2022-10-08T23:00:36.697Z,85.88
2022-10-08T23:03:34.139Z,85.85
2022-10-08T23:06:35.199Z,86.09
2022-10-08T23:09:32.878Z,87.47
2022-10-08T23:12:29.943Z,88.55
2022-10-08T23:15:27.053Z,88.50
2022-10-08T23:18:24.980Z,89.59
2022-10-08T23:21:23.193Z,89.88
2022-10-08T23:24:21.002Z,92.71
2022-10-08T23:27:17.665Z,91.62
2022-10-08T23:30:41.222Z,90.67
2022-10-08T23:33:32.737Z,91.68
2022-10-08T23:36:31.940Z,90.75
2022-10-08T23:39:28.943Z,91.52
2022-10-08T23:42:25.754Z,91.58
2022-10-08T23:45:22.878Z,89.48
2022-10-08T23:48:19.869Z,87.30
2022-10-08T23:51:17.482Z,86.14
2022-10-08T23:54:14.721Z,85.53
2022-10-08T23:57:11.611Z,86.33
